Time;durP1;ratioP1;P1;durP2;ratioP2;P2;SDS_P1;SDS_P2;PMS_P1;PMS_P2;Temp;Humidity;BMP_temperature;BMP_pressure;BME280_temperature;BME280_humidity;BME280_pressure;Samples;Min_cycle;Max_cycle;Signal;HPM_P1;HPM_P2
2021/10/04 00:00:39;;;;;;;15.25;9.40;;;17.30;99.90;;;;;;5054048;28;20021;-76
2021/10/04 00:03:05;;;;;;;13.82;9.77;;;17.10;99.90;;;;;;5063485;28;20060;-76
2021/10/04 00:05:31;;;;;;;14.52;9.43;;;17.00;99.90;;;;;;5073560;28;20043;-76
2021/10/04 00:07:56;;;;;;;14.30;9.07;;;17.00;99.90;;;;;;5065160;28;20049;-76
2021/10/04 00:10:22;;;;;;;13.00;8.55;;;17.00;99.90;;;;;;5054139;28;20029;-76
2021/10/04 00:12:48;;;;;;;16.33;10.05;;;16.90;99.90;;;;;;5063239;28;20044;-75
2021/10/04 00:15:16;;;;;;;16.67;8.52;;;16.80;99.90;;;;;;5072162;28;20043;-76
2021/10/04 00:17:43;;;;;;;15.82;8.95;;;16.80;99.90;;;;;;5073838;28;20028;-75
2021/10/04 00:20:12;;;;;;;20.50;8.57;;;16.80;99.90;;;;;;5054891;28;20479;-76
2021/10/04 00:22:38;;;;;;;13.48;9.02;;;16.80;99.90;;;;;;5054499;28;20036;-76
2021/10/04 00:25:05;;;;;;;13.95;9.00;;;16.80;99.90;;;;;;5053383;28;20045;-76
2021/10/04 00:27:31;;;;;;;13.10;8.77;;;16.90;99.90;;;;;;5058399;28;20047;-76
2021/10/04 00:29:58;;;;;;;12.00;7.43;;;16.90;99.90;;;;;;5060696;28;20025;-77
2021/10/04 00:32:24;;;;;;;12.18;7.97;;;16.90;99.90;;;;;;5054319;28;20025;-76
2021/10/04 00:34:50;;;;;;;16.35;9.73;;;16.90;99.90;;;;;;5053138;28;20386;-75
2021/10/04 00:37:15;;;;;;;11.90;8.48;;;16.80;99.90;;;;;;5051590;28;20458;-75
2021/10/04 00:39:41;;;;;;;14.93;9.85;;;16.80;99.90;;;;;;5053661;28;20441;-76
2021/10/04 00:42:07;;;;;;;12.23;8.38;;;16.90;99.90;;;;;;5051886;28;20496;-76
2021/10/04 00:44:33;;;;;;;13.73;8.75;;;16.90;99.90;;;;;;5060554;28;20493;-77
2021/10/04 00:46:59;;;;;;;11.32;7.72;;;16.90;99.90;;;;;;5070212;28;20036;-76
2021/10/04 00:49:25;;;;;;;13.65;8.80;;;16.80;99.90;;;;;;5064132;28;20779;-76
2021/10/04 00:51:50;;;;;;;11.55;6.88;;;16.90;99.90;;;;;;5066090;28;20074;-76
2021/10/04 00:54:16;;;;;;;10.45;6.38;;;17.00;99.90;;;;;;5071086;28;20052;-75
2021/10/04 00:56:42;;;;;;;11.80;7.50;;;17.20;99.90;;;;;;5071792;28;20029;-75
2021/10/04 00:59:08;;;;;;;10.90;7.70;;;17.20;99.90;;;;;;5072909;28;20032;-76
2021/10/04 01:01:34;;;;;;;14.85;8.57;;;17.10;99.90;;;;;;5065134;28;20040;-76
2021/10/04 01:04:00;;;;;;;12.60;7.80;;;17.00;99.90;;;;;;5063311;28;20128;-76
2021/10/04 01:06:27;;;;;;;14.63;8.30;;;16.90;99.90;;;;;;5053084;28;20495;-76
2021/10/04 01:08:53;;;;;;;12.43;8.50;;;16.90;99.90;;;;;;5053229;28;20457;-76
2021/10/04 01:11:19;;;;;;;11.38;7.13;;;16.80;99.90;;;;;;5066864;28;20104;-76
2021/10/04 01:13:46;;;;;;;14.38;8.20;;;16.80;99.90;;;;;;5072706;28;20032;-76
2021/10/04 01:16:13;;;;;;;11.32;7.35;;;16.90;99.90;;;;;;5059559;28;20025;-75
2021/10/04 01:18:38;;;;;;;11.57;7.35;;;16.90;99.90;;;;;;5053217;28;20495;-76
2021/10/04 01:21:04;;;;;;;11.90;7.30;;;16.90;99.90;;;;;;5051633;28;20044;-76
2021/10/04 01:23:31;;;;;;;11.15;7.45;;;16.90;99.90;;;;;;5052979;28;20036;-76
2021/10/04 01:25:58;;;;;;;10.88;7.97;;;16.90;99.90;;;;;;5053079;28;20021;-76
2021/10/04 01:28:24;;;;;;;15.25;7.93;;;16.80;99.90;;;;;;5052652;28;20052;-76
2021/10/04 01:30:50;;;;;;;13.95;8.98;;;16.80;99.90;;;;;;5052524;28;20017;-77
2021/10/04 01:33:16;;;;;;;10.52;7.93;;;16.70;99.90;;;;;;5055337;28;20554;-75
2021/10/04 01:35:42;;;;;;;9.63;5.80;;;16.70;99.90;;;;;;5067838;28;20055;-75
2021/10/04 01:38:08;;;;;;;8.27;5.25;;;16.90;99.90;;;;;;5053868;28;20032;-75
2021/10/04 01:40:34;;;;;;;9.25;6.03;;;17.30;99.90;;;;;;5051313;28;20028;-76
2021/10/04 01:43:00;;;;;;;10.02;5.65;;;17.50;99.90;;;;;;5052166;28;20064;-76
2021/10/04 01:45:28;;;;;;;10.18;6.00;;;17.60;99.90;;;;;;5050810;28;20044;-77
2021/10/04 01:47:59;;;;;;;12.23;6.85;;;17.50;99.90;;;;;;5052284;28;20021;-76
2021/10/04 01:50:29;;;;;;;11.13;7.68;;;17.30;99.90;;;;;;5052645;28;20094;-76
2021/10/04 01:52:54;;;;;;;15.98;8.57;;;17.00;99.90;;;;;;5056171;28;20167;-75
2021/10/04 01:55:20;;;;;;;13.05;9.35;;;16.90;99.90;;;;;;5052195;28;20056;-75
2021/10/04 01:57:46;;;;;;;13.15;9.48;;;16.80;99.90;;;;;;5051993;28;20021;-75
2021/10/04 02:00:15;;;;;;;13.13;8.40;;;16.80;99.90;;;;;;5069256;28;20020;-76
2021/10/04 02:02:42;;;;;;;13.57;8.52;;;16.70;99.90;;;;;;5054563;28;20444;-76
2021/10/04 02:05:09;;;;;;;13.65;9.00;;;16.60;99.90;;;;;;5051843;28;20025;-76
2021/10/04 02:07:36;;;;;;;13.90;8.48;;;16.60;99.90;;;;;;5061504;28;20103;-76
2021/10/04 02:10:05;;;;;;;11.65;7.55;;;16.60;99.90;;;;;;5057860;28;20135;-75
2021/10/04 02:12:32;;;;;;;12.15;7.57;;;16.50;99.90;;;;;;5051424;28;20045;-75
2021/10/04 02:14:57;;;;;;;10.23;6.25;;;16.70;99.90;;;;;;5051978;28;20028;-75
2021/10/04 02:17:23;;;;;;;9.00;6.60;;;16.70;99.90;;;;;;5051950;28;20025;-76
2021/10/04 02:19:49;;;;;;;9.23;5.85;;;17.00;99.90;;;;;;5051800;28;20021;-75
2021/10/04 02:22:14;;;;;;;11.18;6.22;;;17.00;99.90;;;;;;5058154;28;20478;-75
2021/10/04 02:24:40;;;;;;;12.68;6.35;;;17.00;99.90;;;;;;5067328;28;20142;-77
2021/10/04 02:27:06;;;;;;;9.90;6.47;;;17.10;99.90;;;;;;5053151;28;20483;-76
2021/10/04 02:29:31;;;;;;;10.77;7.35;;;17.00;99.90;;;;;;5051258;28;20032;-76
2021/10/04 02:31:57;;;;;;;10.23;6.45;;;16.90;99.90;;;;;;5053102;28;20032;-75
2021/10/04 02:34:23;;;;;;;11.48;8.35;;;16.80;99.90;;;;;;5051248;28;20028;-76
2021/10/04 02:36:48;;;;;;;11.48;8.70;;;16.60;99.90;;;;;;5051747;28;20029;-76
2021/10/04 02:39:14;;;;;;;14.43;7.57;;;16.50;99.90;;;;;;5049977;28;20065;-78
2021/10/04 02:41:40;;;;;;;11.43;6.90;;;16.50;99.90;;;;;;5070087;28;20444;-75
2021/10/04 02:44:05;;;;;;;9.90;6.63;;;16.50;99.90;;;;;;5055089;28;20032;-76
2021/10/04 02:46:31;;;;;;;12.68;5.75;;;16.50;99.90;;;;;;5057120;28;20036;-76
2021/10/04 02:48:57;;;;;;;10.57;5.43;;;16.70;99.90;;;;;;5049360;28;20487;-76
2021/10/04 02:51:23;;;;;;;8.02;5.20;;;16.80;99.90;;;;;;5050465;28;20494;-76
2021/10/04 02:53:48;;;;;;;9.45;5.80;;;16.80;99.90;;;;;;5049781;28;20024;-75
2021/10/04 02:56:14;;;;;;;8.50;5.65;;;17.00;99.90;;;;;;5049873;28;20605;-76
2021/10/04 02:58:40;;;;;;;8.88;5.20;;;17.00;99.90;;;;;;5051122;28;20056;-76
2021/10/04 03:01:05;;;;;;;10.75;6.13;;;17.00;99.90;;;;;;5063938;28;20671;-75
2021/10/04 03:03:31;;;;;;;8.63;6.53;;;16.90;99.90;;;;;;5056304;28;20037;-75
2021/10/04 03:05:57;;;;;;;12.63;7.07;;;16.80;99.90;;;;;;5062638;28;20360;-76
2021/10/04 03:08:22;;;;;;;8.77;5.38;;;16.70;99.90;;;;;;5063466;28;20028;-76
2021/10/04 03:10:48;;;;;;;9.20;6.05;;;16.70;99.90;;;;;;5064034;28;20028;-75
2021/10/04 03:13:14;;;;;;;8.38;5.20;;;16.70;99.90;;;;;;5063378;28;20032;-76
2021/10/04 03:15:40;;;;;;;8.35;4.45;;;17.10;99.90;;;;;;5066941;28;20118;-77
2021/10/04 03:18:06;;;;;;;8.07;5.22;;;17.30;99.90;;;;;;5073065;28;20035;-76
2021/10/04 03:20:32;;;;;;;10.55;5.13;;;17.40;99.90;;;;;;5067610;28;20032;-75
2021/10/04 03:22:58;;;;;;;9.15;5.10;;;17.40;99.90;;;;;;5084888;28;20378;-75
2021/10/04 03:25:25;;;;;;;11.52;5.78;;;17.50;99.90;;;;;;5079675;28;20040;-76
2021/10/04 03:27:50;;;;;;;10.80;6.43;;;17.40;99.90;;;;;;5067542;28;20099;-76
2021/10/04 03:30:16;;;;;;;21.77;6.97;;;17.00;99.90;;;;;;5081618;28;20107;-75
2021/10/04 03:32:43;;;;;;;11.32;6.80;;;16.90;99.90;;;;;;5063605;28;20033;-75
2021/10/04 03:35:10;;;;;;;9.52;7.25;;;16.80;99.90;;;;;;5054819;28;20075;-75
2021/10/04 03:37:36;;;;;;;11.75;7.45;;;16.80;99.90;;;;;;5066288;28;20463;-75
2021/10/04 03:40:03;;;;;;;10.52;6.32;;;16.60;99.90;;;;;;5071494;28;20033;-75
2021/10/04 03:42:29;;;;;;;9.65;6.00;;;16.60;99.90;;;;;;5066366;28;20036;-75
2021/10/04 03:44:55;;;;;;;8.82;5.70;;;16.90;99.90;;;;;;5065671;28;20029;-75
2021/10/04 03:47:20;;;;;;;12.77;7.60;;;17.00;99.90;;;;;;5073560;28;20035;-76
2021/10/04 03:49:46;;;;;;;11.60;7.22;;;16.90;99.90;;;;;;5066753;28;20032;-75
2021/10/04 03:52:12;;;;;;;13.50;7.78;;;16.80;99.90;;;;;;5060509;28;20037;-75
2021/10/04 03:54:38;;;;;;;10.27;7.10;;;16.60;99.90;;;;;;5065611;28;20700;-75
2021/10/04 03:57:04;;;;;;;12.70;8.00;;;16.50;99.90;;;;;;5064656;28;20066;-76
2021/10/04 03:59:30;;;;;;;11.32;7.75;;;16.40;99.90;;;;;;5062640;28;20036;-76
2021/10/04 04:01:55;;;;;;;12.52;8.05;;;16.40;99.90;;;;;;5065896;28;20047;-75
2021/10/04 04:04:21;;;;;;;12.23;7.43;;;16.30;99.90;;;;;;5069670;28;20572;-75
2021/10/04 04:06:47;;;;;;;12.20;7.90;;;16.40;99.90;;;;;;5056920;28;20049;-75
2021/10/04 04:09:12;;;;;;;11.10;6.75;;;16.40;99.90;;;;;;5074413;28;20031;-75
2021/10/04 04:11:38;;;;;;;7.95;5.88;;;16.30;99.90;;;;;;5067892;28;20027;-76
2021/10/04 04:14:04;;;;;;;11.40;6.97;;;16.20;99.90;;;;;;5066432;28;20025;-75
2021/10/04 04:16:30;;;;;;;9.80;6.65;;;16.20;99.90;;;;;;5077243;28;20036;-75
2021/10/04 04:18:56;;;;;;;9.15;6.55;;;16.20;99.90;;;;;;5073548;28;20031;-75
2021/10/04 04:21:21;;;;;;;10.32;5.63;;;16.20;99.90;;;;;;5078677;28;20037;-75
2021/10/04 04:23:47;;;;;;;13.13;7.10;;;16.30;99.90;;;;;;5046898;28;20430;-75
2021/10/04 04:26:13;;;;;;;11.57;6.78;;;16.40;99.90;;;;;;5061299;28;20043;-75
2021/10/04 04:28:39;;;;;;;11.50;6.53;;;16.50;99.90;;;;;;5068805;28;20073;-77
2021/10/04 04:31:04;;;;;;;9.25;6.47;;;16.50;99.90;;;;;;5085734;28;20084;-76
2021/10/04 04:33:30;;;;;;;11.25;6.70;;;16.50;99.90;;;;;;5066487;28;20426;-77
2021/10/04 04:35:56;;;;;;;9.45;6.68;;;16.30;99.90;;;;;;5086836;28;20354;-76
2021/10/04 04:38:22;;;;;;;9.23;5.85;;;16.30;99.90;;;;;;5067385;28;20593;-75
2021/10/04 04:40:48;;;;;;;9.77;6.22;;;16.30;99.90;;;;;;5055249;28;20612;-76
2021/10/04 04:43:13;;;;;;;9.38;5.53;;;16.30;99.90;;;;;;5062224;28;20062;-76
2021/10/04 04:45:39;;;;;;;11.27;6.75;;;16.20;99.90;;;;;;5082873;28;20680;-75
2021/10/04 04:48:05;;;;;;;8.68;5.78;;;16.30;99.90;;;;;;5064473;28;20017;-76
2021/10/04 04:50:31;;;;;;;8.90;5.18;;;16.30;99.90;;;;;;5072964;28;20036;-75
2021/10/04 04:52:57;;;;;;;8.18;5.43;;;16.20;99.90;;;;;;5084529;28;20635;-77
2021/10/04 04:55:23;;;;;;;9.65;6.45;;;16.20;99.90;;;;;;5077177;28;20068;-77
2021/10/04 04:57:48;;;;;;;9.50;5.93;;;16.20;99.90;;;;;;5070663;28;20062;-76
2021/10/04 05:00:15;;;;;;;8.00;6.15;;;16.20;99.90;;;;;;5059504;28;20082;-75
2021/10/04 05:02:43;;;;;;;12.30;5.85;;;16.10;99.90;;;;;;5065895;28;20111;-76
2021/10/04 05:05:09;;;;;;;8.90;6.05;;;16.20;99.90;;;;;;5066718;28;20033;-75
2021/10/04 05:07:35;;;;;;;9.50;5.95;;;16.20;99.90;;;;;;5065288;28;20395;-75
2021/10/04 05:10:01;;;;;;;14.60;6.40;;;16.20;99.90;;;;;;5065564;28;20029;-75
2021/10/04 05:12:27;;;;;;;11.18;7.03;;;16.20;99.90;;;;;;5079786;28;20063;-75
2021/10/04 05:14:53;;;;;;;9.40;5.95;;;16.10;99.90;;;;;;5084333;28;20576;-76
2021/10/04 05:17:18;;;;;;;10.38;6.45;;;16.00;99.90;;;;;;5061061;28;20481;-75
2021/10/04 05:19:44;;;;;;;10.52;6.15;;;16.00;99.90;;;;;;5065065;28;20104;-75
2021/10/04 05:22:10;;;;;;;9.90;6.22;;;16.00;99.90;;;;;;5074079;28;20039;-75
2021/10/04 05:24:36;;;;;;;9.60;6.85;;;16.00;99.90;;;;;;5075937;28;20059;-75
2021/10/04 05:27:02;;;;;;;10.93;5.22;;;16.00;99.90;;;;;;5054480;28;20017;-76
2021/10/04 05:29:27;;;;;;;13.57;5.85;;;15.80;99.90;;;;;;5068204;28;20552;-75
2021/10/04 05:31:54;;;;;;;10.45;6.22;;;15.80;99.90;;;;;;5072611;28;20033;-75
2021/10/04 05:34:20;;;;;;;9.95;6.32;;;15.90;99.90;;;;;;5068160;28;20033;-74
2021/10/04 05:36:46;;;;;;;8.23;5.43;;;15.90;99.90;;;;;;5067692;28;20039;-74
2021/10/04 05:39:12;;;;;;;12.18;6.82;;;16.00;99.90;;;;;;5070471;28;20032;-76
2021/10/04 05:41:37;;;;;;;9.35;6.15;;;16.00;99.90;;;;;;5057431;28;20115;-75
2021/10/04 05:44:04;;;;;;;11.15;6.03;;;16.00;99.90;;;;;;5046401;28;20603;-75
2021/10/04 05:46:30;;;;;;;13.52;6.70;;;16.00;99.90;;;;;;5045884;28;20036;-76
2021/10/04 05:48:55;;;;;;;9.00;6.03;;;15.90;99.90;;;;;;5046178;28;20108;-75
2021/10/04 05:51:21;;;;;;;10.45;6.47;;;15.80;99.90;;;;;;5045369;28;20025;-76
2021/10/04 05:53:47;;;;;;;10.02;6.13;;;15.80;99.90;;;;;;5043367;28;20517;-76
2021/10/04 05:56:13;;;;;;;9.48;5.78;;;15.90;99.90;;;;;;5043132;28;20025;-76
2021/10/04 05:58:40;;;;;;;8.30;5.05;;;16.00;99.90;;;;;;5043235;28;20025;-75
2021/10/04 06:01:05;;;;;;;9.18;5.38;;;16.10;99.90;;;;;;5043706;28;20479;-76
2021/10/04 06:03:31;;;;;;;8.00;5.03;;;16.00;99.90;;;;;;5044702;28;20158;-76
2021/10/04 06:05:57;;;;;;;11.48;6.10;;;16.10;99.90;;;;;;5044236;28;20045;-76
2021/10/04 06:08:22;;;;;;;8.13;6.32;;;16.20;99.90;;;;;;5044494;28;20493;-76
2021/10/04 06:10:48;;;;;;;10.40;6.40;;;16.20;99.90;;;;;;5044603;28;20053;-75
2021/10/04 06:13:14;;;;;;;9.55;6.90;;;16.30;99.90;;;;;;5044065;28;20577;-76
2021/10/04 06:15:41;;;;;;;11.73;6.30;;;16.30;99.90;;;;;;5044265;28;20027;-75
2021/10/04 06:18:10;;;;;;;9.45;6.18;;;16.30;99.90;;;;;;5044215;28;20032;-76
2021/10/04 06:20:36;;;;;;;9.50;6.07;;;16.30;99.90;;;;;;5043909;28;20029;-76
2021/10/04 06:23:02;;;;;;;11.55;6.00;;;16.30;99.90;;;;;;5044486;28;20036;-75
2021/10/04 06:25:27;;;;;;;9.43;5.78;;;16.30;99.90;;;;;;5043666;28;20379;-76
2021/10/04 06:27:55;;;;;;;9.73;6.05;;;16.20;99.90;;;;;;5044136;28;20036;-75
2021/10/04 06:30:21;;;;;;;9.48;6.70;;;16.20;99.90;;;;;;5044285;28;20033;-76
2021/10/04 06:32:47;;;;;;;9.73;6.22;;;16.20;99.90;;;;;;5044016;28;20499;-76
2021/10/04 06:35:13;;;;;;;12.43;6.53;;;16.00;99.90;;;;;;5043923;28;20028;-75
2021/10/04 06:37:39;;;;;;;9.70;6.53;;;16.00;99.90;;;;;;5043970;28;20092;-75
2021/10/04 06:40:06;;;;;;;12.60;6.80;;;15.90;99.90;;;;;;5043977;28;20494;-76
2021/10/04 06:42:32;;;;;;;9.35;5.97;;;16.00;99.90;;;;;;5040972;28;20106;-75
2021/10/04 06:44:58;;;;;;;9.35;5.90;;;16.10;99.90;;;;;;5043320;28;20021;-76
2021/10/04 06:47:24;;;;;;;11.85;5.93;;;16.10;99.90;;;;;;5042174;28;20028;-75
2021/10/04 06:49:50;;;;;;;10.43;6.28;;;16.20;99.90;;;;;;5038529;28;20041;-76
2021/10/04 06:52:16;;;;;;;8.75;5.85;;;16.20;99.90;;;;;;5050540;28;20115;-75
2021/10/04 06:54:42;;;;;;;11.82;6.53;;;16.30;99.90;;;;;;5049647;28;20048;-76
2021/10/04 06:57:08;;;;;;;9.68;6.03;;;16.30;99.90;;;;;;5043158;28;20028;-77
2021/10/04 06:59:34;;;;;;;13.00;6.05;;;16.30;99.90;;;;;;5041813;28;20021;-77
2021/10/04 07:02:01;;;;;;;9.35;5.28;;;16.30;99.90;;;;;;5040469;28;20049;-77
2021/10/04 07:04:26;;;;;;;12.43;6.20;;;16.20;99.90;;;;;;5042852;28;20044;-77
2021/10/04 07:06:52;;;;;;;9.90;4.78;;;16.20;99.90;;;;;;5042502;28;20049;-77
2021/10/04 07:09:18;;;;;;;8.02;5.90;;;16.20;99.90;;;;;;5043071;28;20471;-77
2021/10/04 07:11:44;;;;;;;10.55;5.50;;;16.30;99.90;;;;;;5043420;28;20032;-77
2021/10/04 07:14:10;;;;;;;12.48;6.00;;;16.40;99.90;;;;;;5043255;28;20041;-76
2021/10/04 07:16:36;;;;;;;11.60;6.00;;;16.50;99.90;;;;;;5042304;28;20104;-77
2021/10/04 07:19:03;;;;;;;9.30;5.90;;;16.50;99.90;;;;;;5041866;28;20044;-76
2021/10/04 07:21:30;;;;;;;10.55;5.82;;;16.50;99.90;;;;;;5041241;28;20116;-76
2021/10/04 07:23:55;;;;;;;9.07;5.63;;;16.50;99.90;;;;;;5042175;28;20029;-76
2021/10/04 07:26:22;;;;;;;11.52;6.20;;;16.50;99.90;;;;;;5042059;28;20040;-76
2021/10/04 07:28:49;;;;;;;10.07;5.18;;;16.50;99.90;;;;;;5041705;28;20561;-77
2021/10/04 07:31:15;;;;;;;8.73;5.95;;;16.50;99.90;;;;;;5042641;28;20025;-77
2021/10/04 07:33:40;;;;;;;8.57;5.55;;;16.50;99.90;;;;;;5043926;28;20029;-76
2021/10/04 07:36:06;;;;;;;8.27;5.10;;;16.50;99.90;;;;;;5044081;28;20521;-77
2021/10/04 07:38:37;;;;;;;10.27;6.15;;;16.60;99.90;;;;;;5044137;28;20035;-76
2021/10/04 07:41:05;;;;;;;8.52;5.68;;;16.60;99.90;;;;;;5050713;28;20107;-76
2021/10/04 07:43:31;;;;;;;11.00;5.53;;;16.70;99.90;;;;;;5064648;28;20036;-76
2021/10/04 07:45:58;;;;;;;9.77;6.28;;;16.80;99.90;;;;;;5067532;28;20029;-76
2021/10/04 07:48:24;;;;;;;21.50;11.70;;;16.80;99.90;;;;;;5066742;28;20036;-76
2021/10/04 07:50:50;;;;;;;13.63;7.75;;;16.80;99.90;;;;;;5068025;28;20040;-77
2021/10/04 07:53:16;;;;;;;15.18;6.95;;;16.90;99.90;;;;;;5067313;28;20028;-76
2021/10/04 07:55:42;;;;;;;13.63;7.28;;;16.90;99.90;;;;;;5067707;28;20526;-77
2021/10/04 07:58:09;;;;;;;12.52;7.72;;;17.00;99.90;;;;;;5067413;28;20029;-77
2021/10/04 08:00:35;;;;;;;10.40;6.38;;;17.00;99.90;;;;;;5067194;28;20027;-76
2021/10/04 08:03:01;;;;;;;11.13;6.38;;;17.10;99.90;;;;;;5067559;28;20036;-77
2021/10/04 08:05:27;;;;;;;9.82;6.50;;;17.20;99.90;;;;;;5067494;28;20020;-77
2021/10/04 08:07:53;;;;;;;10.30;6.38;;;17.20;99.90;;;;;;5066912;28;20050;-77
2021/10/04 08:10:19;;;;;;;10.27;5.78;;;17.30;99.90;;;;;;5065824;28;20036;-76
2021/10/04 08:12:45;;;;;;;10.70;5.65;;;17.40;99.90;;;;;;5067431;28;20020;-77
2021/10/04 08:15:11;;;;;;;12.68;6.10;;;17.50;99.90;;;;;;5057074;28;20029;-76
2021/10/04 08:17:37;;;;;;;8.95;5.25;;;17.50;99.90;;;;;;5047995;28;20029;-77
2021/10/04 08:20:08;;;;;;;10.40;6.28;;;17.70;99.90;;;;;;5048050;28;20587;-77
2021/10/04 08:22:35;;;;;;;8.02;4.60;;;17.80;99.90;;;;;;5046548;28;20071;-77
2021/10/04 08:25:10;;;;;;;9.75;6.22;;;17.90;99.90;;;;;;5046520;28;20682;-77
2021/10/04 08:27:37;;;;;;;11.05;5.78;;;18.00;99.90;;;;;;5046131;28;20028;-77
2021/10/04 08:30:03;;;;;;;11.90;6.25;;;18.20;99.90;;;;;;5046044;28;20025;-77
2021/10/04 08:32:29;;;;;;;11.15;6.95;;;18.20;99.90;;;;;;5045076;28;20029;-77
2021/10/04 08:34:55;;;;;;;12.63;6.72;;;18.10;99.90;;;;;;5045233;28;20036;-77
2021/10/04 08:37:21;;;;;;;10.18;5.88;;;18.20;99.90;;;;;;5045138;28;20552;-77
2021/10/04 08:39:47;;;;;;;8.82;6.03;;;18.20;99.90;;;;;;5045259;28;20017;-77
2021/10/04 08:42:14;;;;;;;7.95;5.57;;;18.20;99.90;;;;;;5045253;28;20505;-76
2021/10/04 08:44:41;;;;;;;10.00;6.05;;;18.20;99.90;;;;;;5045417;28;20082;-76
2021/10/04 08:47:07;;;;;;;8.82;5.57;;;18.30;99.90;;;;;;5046145;28;20112;-76
2021/10/04 08:49:34;;;;;;;10.13;6.68;;;18.30;99.90;;;;;;5046439;28;20024;-76
2021/10/04 08:52:01;;;;;;;9.57;6.05;;;18.40;99.90;;;;;;5046828;28;20025;-77
2021/10/04 08:54:29;;;;;;;7.90;5.68;;;18.60;99.90;;;;;;5046196;28;20120;-77
2021/10/04 08:56:56;;;;;;;11.45;5.93;;;18.60;99.90;;;;;;5045342;28;20029;-77
2021/10/04 08:59:23;;;;;;;10.70;6.00;;;18.70;99.90;;;;;;5045989;28;20025;-77
2021/10/04 09:01:48;;;;;;;13.25;6.57;;;18.70;99.90;;;;;;5046783;28;20116;-77
2021/10/04 09:04:21;;;;;;;9.73;6.88;;;18.70;99.90;;;;;;5046545;28;20108;-76
2021/10/04 09:06:47;;;;;;;9.93;5.20;;;18.80;99.90;;;;;;5046151;28;20623;-76
2021/10/04 09:09:15;;;;;;;8.55;5.93;;;18.80;99.90;;;;;;5045904;28;20073;-76
2021/10/04 09:11:42;;;;;;;8.00;5.63;;;18.90;99.90;;;;;;5046083;28;20032;-75
2021/10/04 09:14:12;;;;;;;10.52;6.47;;;18.90;99.90;;;;;;5046259;28;20371;-77
2021/10/04 09:16:58;;;;;;;9.77;5.70;;;19.10;99.90;;;;;;5046427;28;20112;-76
2021/10/04 09:19:36;;;;;;;11.25;7.20;;;19.10;99.90;;;;;;5045436;28;20028;-77
2021/10/04 09:22:12;;;;;;;9.90;6.10;;;19.10;99.90;;;;;;5046078;28;20140;-77
2021/10/04 09:24:47;;;;;;;11.30;6.68;;;19.10;99.90;;;;;;5045455;28;20032;-77
2021/10/04 09:27:24;;;;;;;10.07;6.40;;;19.10;99.90;;;;;;5045666;28;20505;-76
2021/10/04 09:29:50;;;;;;;8.60;5.50;;;19.10;99.90;;;;;;5049655;28;20437;-77
2021/10/04 09:32:25;;;;;;;9.18;6.22;;;19.20;99.90;;;;;;5044942;28;20113;-77
2021/10/04 09:34:51;;;;;;;11.30;5.95;;;19.10;99.90;;;;;;5044406;28;20506;-77
2021/10/04 09:37:26;;;;;;;10.20;5.80;;;19.10;99.90;;;;;;5044666;28;20112;-77
2021/10/04 09:39:52;;;;;;;10.80;5.72;;;19.10;99.90;;;;;;5044799;28;20549;-77
2021/10/04 09:42:18;;;;;;;10.60;5.70;;;19.10;99.90;;;;;;5044737;28;20029;-77
2021/10/04 09:44:44;;;;;;;9.30;6.28;;;19.10;99.90;;;;;;5044339;28;20156;-77
2021/10/04 09:47:17;;;;;;;10.05;5.65;;;19.20;99.90;;;;;;5044810;28;20665;-76
2021/10/04 09:49:56;;;;;;;9.85;5.82;;;19.10;99.90;;;;;;5045081;28;20182;-76
2021/10/04 09:52:41;;;;;;;8.18;5.85;;;19.20;99.90;;;;;;5045501;28;20032;-77
2021/10/04 09:55:12;;;;;;;9.30;5.28;;;19.30;99.90;;;;;;5062397;28;20105;-77
2021/10/04 09:57:38;;;;;;;9.45;5.57;;;19.40;99.90;;;;;;5064875;28;20036;-77
2021/10/04 10:00:05;;;;;;;7.55;5.38;;;19.40;99.90;;;;;;5064768;28;20021;-77
2021/10/04 10:02:31;;;;;;;13.98;7.03;;;19.50;99.90;;;;;;5064384;28;20775;-77
2021/10/04 10:04:58;;;;;;;11.02;6.03;;;19.70;99.90;;;;;;5064646;28;20067;-77
2021/10/04 10:07:24;;;;;;;9.40;6.20;;;19.70;99.90;;;;;;5064103;28;20057;-77
2021/10/04 10:09:50;;;;;;;9.27;5.30;;;19.90;99.90;;;;;;5065108;28;20516;-76
2021/10/04 10:12:16;;;;;;;10.35;6.35;;;20.10;99.90;;;;;;5063876;28;20115;-77
2021/10/04 10:14:47;;;;;;;8.38;5.40;;;20.20;99.90;;;;;;5064124;28;20189;-76
2021/10/04 10:17:20;;;;;;;6.65;4.13;;;20.50;99.90;;;;;;5064198;28;20049;-76
2021/10/04 10:19:48;;;;;;;8.73;4.78;;;20.70;99.90;;;;;;5047968;28;20096;-76
2021/10/04 10:22:17;;;;;;;5.68;3.45;;;21.00;99.90;;;;;;5044339;28;20450;-76
2021/10/04 10:24:44;;;;;;;6.28;3.80;;;21.30;99.90;;;;;;5043981;28;20379;-77
2021/10/04 10:27:12;;;;;;;7.68;4.05;;;21.50;99.70;;;;;;5044147;28;20082;-77
2021/10/04 10:29:38;;;;;;;7.10;4.20;;;21.60;99.00;;;;;;5044201;28;20044;-77
2021/10/04 10:32:07;;;;;;;11.60;3.63;;;21.60;99.30;;;;;;5043804;28;20033;-76
2021/10/04 10:34:37;;;;;;;7.43;4.20;;;21.70;99.00;;;;;;5043826;28;20051;-77
2021/10/04 10:37:11;;;;;;;5.28;3.33;;;21.60;99.00;;;;;;5043846;28;20060;-77
2021/10/04 10:39:43;;;;;;;9.40;4.05;;;21.60;99.10;;;;;;5043717;28;20056;-77
2021/10/04 10:42:14;;;;;;;6.18;3.60;;;21.70;98.40;;;;;;5044038;28;20033;-77
2021/10/04 10:44:58;;;;;;;5.10;2.83;;;21.90;98.00;;;;;;5056590;28;20025;-77
2021/10/04 10:47:36;;;;;;;8.98;4.00;;;21.90;97.30;;;;;;5043096;28;20128;-77
2021/10/04 10:50:10;;;;;;;7.50;3.10;;;22.00;97.80;;;;;;5042828;28;20083;-77
2021/10/04 10:52:48;;;;;;;9.05;3.20;;;21.90;98.00;;;;;;5043340;28;20518;-77
2021/10/04 10:55:20;;;;;;;6.25;3.03;;;21.90;97.60;;;;;;5045567;28;20032;-77
2021/10/04 10:57:49;;;;;;;5.97;3.28;;;21.90;97.90;;;;;;5046475;28;20029;-77
2021/10/04 11:00:23;;;;;;;5.13;3.03;;;22.00;98.00;;;;;;5044925;28;20118;-76
2021/10/04 11:02:52;;;;;;;6.38;3.65;;;22.20;98.50;;;;;;5045191;28;20037;-77
2021/10/04 11:05:39;;;;;;;6.50;3.40;;;22.20;97.90;;;;;;5044613;28;20055;-76
2021/10/04 11:08:07;;;;;;;5.35;2.90;;;22.40;97.40;;;;;;5044877;28;20060;-77
2021/10/04 11:10:49;;;;;;;7.80;4.35;;;22.60;97.20;;;;;;5044796;28;20025;-77
2021/10/04 11:13:15;;;;;;;8.70;4.80;;;22.40;99.00;;;;;;5043604;28;20418;-76
2021/10/04 11:15:42;;;;;;;7.72;4.22;;;22.20;99.50;;;;;;5046372;28;20029;-77
2021/10/04 11:18:09;;;;;;;7.65;4.50;;;22.40;99.80;;;;;;5046731;28;20033;-77
2021/10/04 11:20:36;;;;;;;8.27;4.20;;;22.40;99.80;;;;;;5050741;28;20132;-77
2021/10/04 11:23:08;;;;;;;9.00;4.85;;;22.30;99.60;;;;;;5050812;28;20043;-77
2021/10/04 11:25:48;;;;;;;8.95;4.25;;;22.20;99.40;;;;;;5050831;28;20025;-77
2021/10/04 11:28:34;;;;;;;5.63;3.78;;;22.20;99.40;;;;;;5050395;28;20039;-77
2021/10/04 11:31:06;;;;;;;6.88;4.05;;;22.10;99.50;;;;;;5050657;28;20021;-77
2021/10/04 11:33:39;;;;;;;5.25;3.50;;;22.20;99.20;;;;;;5050565;28;21201;-78
2021/10/04 11:36:07;;;;;;;8.32;4.03;;;22.20;99.00;;;;;;5050765;28;20045;-75
2021/10/04 11:38:57;;;;;;;6.18;3.28;;;22.20;98.60;;;;;;5050048;28;20108;-76
2021/10/04 11:41:24;;;;;;;6.03;3.45;;;22.20;98.00;;;;;;5046749;28;20087;-77
2021/10/04 11:43:54;;;;;;;8.73;3.60;;;22.20;97.90;;;;;;5047557;28;20059;-76
2021/10/04 11:46:23;;;;;;;7.55;3.75;;;22.20;97.80;;;;;;5047291;28;20052;-76
2021/10/04 11:48:49;;;;;;;7.20;4.03;;;22.10;97.90;;;;;;5047437;28;20862;-77
2021/10/04 11:51:25;;;;;;;6.10;3.13;;;22.00;98.10;;;;;;5047333;28;20036;-76
2021/10/04 11:53:52;;;;;;;5.43;3.67;;;22.00;98.10;;;;;;5047389;28;20063;-77
2021/10/04 11:56:17;;;;;;;5.57;2.70;;;21.80;98.50;;;;;;5044781;28;20032;-76
2021/10/04 11:58:56;;;;;;;8.68;3.78;;;21.70;98.60;;;;;;5053333;28;20036;-77
2021/10/04 12:01:30;;;;;;;6.00;3.35;;;21.60;98.90;;;;;;5066774;28;20060;-77
2021/10/04 12:04:16;;;;;;;6.32;3.30;;;21.30;99.40;;;;;;5064294;28;20025;-77
2021/10/04 12:06:43;;;;;;;7.18;3.40;;;21.30;99.80;;;;;;5064756;28;20044;-78
2021/10/04 12:09:18;;;;;;;9.23;2.95;;;21.10;99.90;;;;;;5065276;28;20036;-76
2021/10/04 12:11:58;;;;;;;5.22;3.35;;;21.10;99.90;;;;;;5065247;28;20375;-76
2021/10/04 12:14:27;;;;;;;7.13;3.45;;;21.10;99.90;;;;;;5065895;28;20040;-76
2021/10/04 12:17:04;;;;;;;4.60;3.03;;;21.20;99.00;;;;;;5065599;28;20048;-76
2021/10/04 12:19:30;;;;;;;5.70;2.90;;;21.20;98.00;;;;;;5065953;28;20035;-76
2021/10/04 12:21:56;;;;;;;7.50;3.08;;;21.40;97.60;;;;;;5066685;28;20538;-76
2021/10/04 12:24:37;;;;;;;7.13;3.00;;;21.40;97.50;;;;;;5066425;28;20048;-77
2021/10/04 12:27:16;;;;;;;8.27;3.25;;;21.30;97.70;;;;;;5066727;28;20027;-76
2021/10/04 12:29:49;;;;;;;6.85;3.13;;;21.20;98.20;;;;;;5065968;28;20028;-76
2021/10/04 12:32:30;;;;;;;8.25;3.70;;;21.20;99.00;;;;;;5065797;28;20027;-76
2021/10/04 12:35:18;;;;;;;6.20;3.17;;;21.00;98.80;;;;;;5066327;28;20132;-77
2021/10/04 12:37:56;;;;;;;7.80;3.90;;;21.00;98.50;;;;;;5066273;28;20024;-76
2021/10/04 12:40:41;;;;;;;5.28;3.03;;;21.10;98.10;;;;;;5066267;28;20459;-76
2021/10/04 12:43:08;;;;;;;;;;;21.00;97.90;;;;;;5066426;28;20040;-76
2021/10/04 12:45:35;;;;;;;8.40;2.85;;;21.00;97.90;;;;;;5065498;28;19979;-76